createdAt,value
2017-12-25T00:00:21.825Z,82.40
2017-12-25T00:02:50.216Z,82.46
2017-12-25T00:05:19.072Z,82.47
2017-12-25T00:07:47.512Z,82.80
2017-12-25T00:10:16.565Z,83.11
2017-12-25T00:12:45.471Z,82.80
2017-12-25T00:15:13.936Z,82.77
2017-12-25T00:17:42.504Z,82.29
2017-12-25T00:20:11.140Z,82.90
2017-12-25T00:22:40.216Z,83.33
2017-12-25T00:25:08.699Z,83.29
2017-12-25T00:27:37.632Z,83.17
2017-12-25T00:30:05.960Z,82.95
2017-12-25T00:32:35.031Z,82.67
2017-12-25T00:35:04.065Z,83.23
2017-12-25T00:37:32.395Z,83.37
2017-12-25T00:40:01.912Z,83.14
2017-12-25T00:42:30.692Z,83.76
2017-12-25T00:44:59.576Z,83.38
2017-12-25T00:47:28.064Z,83.73
2017-12-25T00:49:57.060Z,83.24
2017-12-25T00:52:25.456Z,83.17
2017-12-25T00:54:54.456Z,83.36
2017-12-25T00:57:25.120Z,83.40
2017-12-25T00:59:53.564Z,83.53
2017-12-25T01:02:22.549Z,83.43
2017-12-25T01:04:53.381Z,83.05
2017-12-25T01:07:27.405Z,82.74
2017-12-25T01:09:56.341Z,82.76
2017-12-25T01:12:25.412Z,82.65
2017-12-25T01:14:55.965Z,83.00
2017-12-25T01:17:25.256Z,83.05
2017-12-25T01:19:55.333Z,83.23
2017-12-25T01:22:24.244Z,83.00
2017-12-25T01:24:53.335Z,82.94
2017-12-25T01:27:21.707Z,82.99
2017-12-25T01:29:50.723Z,83.08
2017-12-25T01:32:19.164Z,82.94
2017-12-25T01:34:49.780Z,83.33
2017-12-25T01:37:18.888Z,83.55
2017-12-25T01:39:47.214Z,83.58
2017-12-25T01:42:15.988Z,83.50
2017-12-25T01:44:44.535Z,83.55
2017-12-25T01:47:13.129Z,83.78
2017-12-25T01:49:41.673Z,83.99
2017-12-25T01:52:10.135Z,83.79
2017-12-25T01:54:40.212Z,83.63
2017-12-25T02:10:34.591Z,83.95
2017-12-25T02:13:03.528Z,84.09
2017-12-25T02:15:32.640Z,83.91
2017-12-25T02:18:00.999Z,83.85
2017-12-25T02:20:29.983Z,84.11
2017-12-25T02:22:58.431Z,84.20
2017-12-25T02:25:26.859Z,84.32
2017-12-25T02:27:55.160Z,84.18
2017-12-25T02:30:23.964Z,84.16
2017-12-25T02:32:53.057Z,84.33
2017-12-25T02:35:22.271Z,83.87
2017-12-25T02:37:51.200Z,83.95
2017-12-25T02:40:20.428Z,83.93
2017-12-25T02:42:49.380Z,84.01
2017-12-25T02:45:17.699Z,84.10
2017-12-25T02:47:46.053Z,83.89
2017-12-25T02:50:14.471Z,84.08
2017-12-25T02:52:43.392Z,84.22
2017-12-25T02:55:12.521Z,83.94
2017-12-25T02:57:41.496Z,84.23
2017-12-25T03:00:11.433Z,84.41
2017-12-25T03:02:41.231Z,84.20
2017-12-25T03:05:09.918Z,84.13
2017-12-25T03:07:38.865Z,84.11
2017-12-25T03:10:08.539Z,84.17
2017-12-25T03:12:38.545Z,83.99
2017-12-25T03:15:08.463Z,84.08
2017-12-25T03:17:38.382Z,83.95
2017-12-25T03:20:08.290Z,83.82
2017-12-25T03:22:37.756Z,83.77
2017-12-25T03:25:08.067Z,83.73
2017-12-25T03:27:38.044Z,83.72
2017-12-25T03:30:07.952Z,83.86
2017-12-25T03:32:36.808Z,84.16
2017-12-25T03:35:05.165Z,84.31
2017-12-25T03:37:33.663Z,84.06
2017-12-25T03:40:02.468Z,83.95
2017-12-25T03:42:31.119Z,83.88
2017-12-25T03:45:00.090Z,84.12
2017-12-25T03:47:28.395Z,84.09
2017-12-25T03:49:57.429Z,84.23
2017-12-25T03:52:25.767Z,84.17
2017-12-25T03:54:54.084Z,84.15
2017-12-25T03:57:23.235Z,84.11
2017-12-25T03:59:52.195Z,84.12
2017-12-25T04:02:20.501Z,84.42
2017-12-25T04:04:49.531Z,84.26
2017-12-25T04:07:17.979Z,84.25
2017-12-25T04:09:46.763Z,84.08
2017-12-25T04:12:15.179Z,83.76
2017-12-25T04:14:44.355Z,84.17
2017-12-25T04:17:13.389Z,84.40
2017-12-25T04:19:42.640Z,84.44
2017-12-25T04:22:11.792Z,84.11
2017-12-25T04:24:40.103Z,84.34
2017-12-25T04:27:08.411Z,84.08
2017-12-25T04:29:36.948Z,83.92
2017-12-25T04:32:05.852Z,83.99
2017-12-25T04:34:34.677Z,84.00
2017-12-25T04:37:03.620Z,83.93
2017-12-25T04:39:32.124Z,84.40
2017-12-25T04:42:01.227Z,84.59
2017-12-25T04:44:31.031Z,84.67
2017-12-25T04:47:00.112Z,84.86
2017-12-25T04:49:28.416Z,85.00
2017-12-25T04:51:57.048Z,85.08
2017-12-25T04:54:25.760Z,84.95
2017-12-25T04:56:54.662Z,84.50
2017-12-25T04:59:23.223Z,84.36
2017-12-25T05:01:52.407Z,84.32
2017-12-25T05:04:21.287Z,84.07
2017-12-25T05:06:50.076Z,84.05
2017-12-25T05:09:18.820Z,84.25
2017-12-25T05:11:47.920Z,84.38
2017-12-25T05:14:16.939Z,84.37
2017-12-25T05:16:45.240Z,84.43
2017-12-25T05:19:13.851Z,84.62
2017-12-25T05:21:42.532Z,84.51
2017-12-25T05:24:11.516Z,84.45
2017-12-25T05:26:39.911Z,84.44
2017-12-25T05:29:09.035Z,84.48
2017-12-25T05:31:38.064Z,84.00
2017-12-25T05:34:06.388Z,83.92
2017-12-25T05:36:35.500Z,84.18
2017-12-25T05:39:03.996Z,84.40
2017-12-25T05:41:32.960Z,84.51
2017-12-25T05:44:02.737Z,84.75
2017-12-25T05:46:31.807Z,84.47
2017-12-25T05:49:00.203Z,84.46
2017-12-25T05:51:29.135Z,84.31
2017-12-25T05:53:57.504Z,84.66
2017-12-25T05:56:25.928Z,84.73
2017-12-25T05:58:56.401Z,85.04
2017-12-25T06:01:24.852Z,84.91
2017-12-25T06:03:53.933Z,84.95
2017-12-25T06:06:23.080Z,84.70
2017-12-25T06:08:52.040Z,84.57
2017-12-25T06:11:21.208Z,84.57
2017-12-25T06:13:50.312Z,84.45
2017-12-25T06:16:18.896Z,84.60
2017-12-25T06:18:47.764Z,84.91
2017-12-25T06:21:16.855Z,84.78
2017-12-25T06:23:45.960Z,84.50
2017-12-25T06:26:14.893Z,84.53
2017-12-25T06:28:43.272Z,84.43
2017-12-25T06:31:12.188Z,84.30
2017-12-25T06:33:40.585Z,84.26
2017-12-25T06:36:09.827Z,84.32
2017-12-25T06:38:38.969Z,84.09
2017-12-25T06:41:07.988Z,84.51
2017-12-25T06:43:36.880Z,84.48
2017-12-25T06:46:06.828Z,84.38
2017-12-25T06:48:35.859Z,84.72
2017-12-25T06:51:04.268Z,85.02
2017-12-25T06:53:32.644Z,85.12
2017-12-25T06:56:01.585Z,85.10
2017-12-25T06:58:30.714Z,84.94
2017-12-25T07:00:59.120Z,85.25
2017-12-25T07:03:28.073Z,85.58
2017-12-25T07:05:56.485Z,85.53
2017-12-25T07:08:25.356Z,85.33
2017-12-25T07:10:54.562Z,85.04
2017-12-25T07:13:22.952Z,84.89
2017-12-25T07:15:51.921Z,85.04
2017-12-25T07:18:20.986Z,84.96
2017-12-25T07:20:59.271Z,85.22
2017-12-25T07:23:27.916Z,85.74
2017-12-25T07:25:57.752Z,85.85
2017-12-25T07:28:26.452Z,85.66
2017-12-25T07:30:55.664Z,85.60
2017-12-25T07:33:24.167Z,85.51
2017-12-25T07:35:53.072Z,85.41
2017-12-25T07:38:21.992Z,85.67
2017-12-25T07:40:51.040Z,85.35
2017-12-25T07:43:19.400Z,85.01
2017-12-25T07:45:47.885Z,85.05
2017-12-25T07:48:16.684Z,85.37
2017-12-25T07:50:45.900Z,85.31
2017-12-25T07:53:14.605Z,85.46
2017-12-25T07:55:43.969Z,85.43
2017-12-25T07:58:12.407Z,85.04
2017-12-25T08:00:41.208Z,84.43
2017-12-25T08:03:09.821Z,84.63
2017-12-25T08:05:38.652Z,84.33
2017-12-25T08:08:07.041Z,84.02
2017-12-25T08:10:35.359Z,83.18
2017-12-25T08:13:04.540Z,83.34
2017-12-25T08:15:33.044Z,82.87
2017-12-25T08:18:01.802Z,82.36
2017-12-25T08:20:30.860Z,81.83
2017-12-25T08:22:59.225Z,82.07
2017-12-25T08:25:28.624Z,81.17
2017-12-25T08:27:57.350Z,81.23
2017-12-25T08:30:26.191Z,81.19
2017-12-25T08:32:55.224Z,82.00
2017-12-25T08:35:23.756Z,82.97
2017-12-25T08:37:52.120Z,83.41
2017-12-25T08:40:20.951Z,82.47
2017-12-25T08:42:49.419Z,81.53
2017-12-25T08:45:18.244Z,79.28
2017-12-25T08:47:46.836Z,77.05
2017-12-25T08:50:15.144Z,75.72
2017-12-25T08:52:43.708Z,75.05
2017-12-25T08:55:12.519Z,76.00
2017-12-25T08:57:41.692Z,77.10
2017-12-25T09:00:10.179Z,77.52
2017-12-25T09:02:38.912Z,78.54
2017-12-25T09:05:07.251Z,80.00
2017-12-25T09:07:36.444Z,81.76
2017-12-25T09:10:04.924Z,81.82
2017-12-25T09:12:33.645Z,82.31
2017-12-25T09:15:02.105Z,82.55
2017-12-25T09:17:31.192Z,82.21
2017-12-25T09:20:00.025Z,82.48
2017-12-25T09:22:28.496Z,83.80
2017-12-25T09:24:57.519Z,83.98
2017-12-25T09:27:25.966Z,84.74
2017-12-25T09:29:54.936Z,85.67
2017-12-25T09:32:23.957Z,85.70
2017-12-25T09:34:52.752Z,85.70
2017-12-25T09:37:21.129Z,84.92
2017-12-25T09:39:49.515Z,84.35
2017-12-25T09:42:17.902Z,84.80
2017-12-25T09:44:47.658Z,84.97
2017-12-25T09:47:16.070Z,85.38
2017-12-25T09:49:44.815Z,84.91
2017-12-25T09:52:13.469Z,84.85
2017-12-25T09:54:42.644Z,84.71
2017-12-25T09:57:11.200Z,84.35
2017-12-25T09:59:40.188Z,84.35
2017-12-25T10:02:09.440Z,84.49
2017-12-25T10:04:38.662Z,84.43
2017-12-25T10:07:07.285Z,84.61
2017-12-25T10:09:36.499Z,84.20
2017-12-25T10:12:04.873Z,83.26
2017-12-25T10:14:34.530Z,83.16
2017-12-25T10:17:02.986Z,83.19
2017-12-25T10:19:31.414Z,83.25
2017-12-25T10:22:00.392Z,82.96
2017-12-25T10:24:28.711Z,82.05
2017-12-25T10:26:58.691Z,82.29
2017-12-25T10:29:27.612Z,81.22
2017-12-25T10:31:56.788Z,81.28
2017-12-25T10:34:25.879Z,80.90
2017-12-25T10:36:54.977Z,80.38
2017-12-25T10:39:23.280Z,80.53
2017-12-25T10:41:51.779Z,81.08
2017-12-25T10:44:20.607Z,80.29
2017-12-25T10:46:48.920Z,80.25
2017-12-25T10:49:17.986Z,80.33
2017-12-25T10:51:46.380Z,81.02
2017-12-25T10:54:15.126Z,80.94
2017-12-25T10:56:43.594Z,80.09
2017-12-25T10:59:12.844Z,79.56
2017-12-25T11:01:41.564Z,79.34
2017-12-25T11:04:10.055Z,78.95
2017-12-25T11:06:38.571Z,79.91
2017-12-25T11:09:07.445Z,78.95
2017-12-25T11:11:35.890Z,78.84
2017-12-25T11:14:04.856Z,78.15
2017-12-25T11:16:33.172Z,78.50
2017-12-25T11:19:02.238Z,78.63
2017-12-25T11:21:30.639Z,78.62
2017-12-25T11:23:59.567Z,78.95
2017-12-25T11:26:27.980Z,79.22
2017-12-25T11:28:56.926Z,79.50
2017-12-25T11:31:25.318Z,78.60
2017-12-25T11:33:54.364Z,78.36
2017-12-25T11:36:23.529Z,78.52
2017-12-25T11:38:52.476Z,78.41
2017-12-25T11:41:20.945Z,77.72
2017-12-25T11:43:50.009Z,77.58
2017-12-25T11:46:18.896Z,76.92
2017-12-25T11:48:47.301Z,77.39
2017-12-25T11:51:16.327Z,77.08
2017-12-25T11:53:44.662Z,77.40
2017-12-25T11:56:13.852Z,77.95
2017-12-25T11:58:42.782Z,77.64
2017-12-25T12:01:11.092Z,77.06
2017-12-25T12:03:39.508Z,76.42
2017-12-25T12:06:08.431Z,76.65
2017-12-25T12:08:36.915Z,76.58
2017-12-25T12:11:05.931Z,76.31
2017-12-25T12:13:34.961Z,76.32
2017-12-25T12:16:03.668Z,76.31
2017-12-25T12:18:33.264Z,76.67
2017-12-25T12:21:02.238Z,75.85
2017-12-25T12:23:31.320Z,75.86
2017-12-25T12:25:59.688Z,75.84
2017-12-25T12:28:28.479Z,76.29
2017-12-25T12:30:59.587Z,75.90
2017-12-25T12:33:28.172Z,76.30
2017-12-25T12:35:56.932Z,76.63
2017-12-25T12:38:26.339Z,76.23
2017-12-25T12:40:54.962Z,76.50
2017-12-25T12:43:23.280Z,76.28
2017-12-25T12:45:52.405Z,76.00
2017-12-25T12:48:20.807Z,76.57
2017-12-25T12:50:49.896Z,76.49
2017-12-25T12:53:19.492Z,75.91
2017-12-25T12:55:48.721Z,75.59
2017-12-25T12:58:17.779Z,75.83
2017-12-25T13:00:46.982Z,76.35
2017-12-25T13:03:16.080Z,76.64
2017-12-25T13:05:45.263Z,75.47
2017-12-25T13:08:14.360Z,76.24
2017-12-25T13:10:42.847Z,77.23
2017-12-25T13:13:11.636Z,76.37
2017-12-25T13:15:40.711Z,76.21
2017-12-25T13:18:09.304Z,76.58
2017-12-25T13:20:38.029Z,76.11
2017-12-25T13:23:06.512Z,75.99
2017-12-25T13:25:34.915Z,75.83
2017-12-25T13:28:03.685Z,75.40
2017-12-25T13:30:32.047Z,75.38
2017-12-25T13:33:01.073Z,75.99
2017-12-25T13:35:29.415Z,75.77
2017-12-25T13:37:58.580Z,75.61
2017-12-25T13:40:27.516Z,75.74
2017-12-25T13:42:55.856Z,75.61
2017-12-25T13:45:25.057Z,75.76
2017-12-25T13:47:53.751Z,75.39
2017-12-25T13:50:23.202Z,75.60
2017-12-25T13:52:51.671Z,75.62
2017-12-25T13:55:20.447Z,75.31
2017-12-25T13:57:48.872Z,75.72
2017-12-25T14:00:17.985Z,76.10
2017-12-25T14:02:46.969Z,76.26
2017-12-25T14:05:15.422Z,76.64
2017-12-25T14:07:44.345Z,76.96
2017-12-25T14:10:13.420Z,77.02
2017-12-25T14:12:42.540Z,77.43
2017-12-25T14:15:10.987Z,77.55
2017-12-25T14:17:39.804Z,77.12
2017-12-25T14:20:08.305Z,76.24
2017-12-25T14:22:37.297Z,76.43
2017-12-25T14:25:06.369Z,76.93
2017-12-25T14:27:34.800Z,77.42
2017-12-25T14:30:04.212Z,76.73
2017-12-25T14:32:32.792Z,76.76
2017-12-25T14:35:01.164Z,77.06
2017-12-25T14:37:30.170Z,77.34
2017-12-25T14:39:59.436Z,77.32
2017-12-25T14:42:28.428Z,77.25
2017-12-25T14:44:57.463Z,77.43
2017-12-25T14:47:25.896Z,78.12
2017-12-25T14:49:55.001Z,78.63
2017-12-25T14:52:23.324Z,79.05
2017-12-25T14:54:52.210Z,79.88
2017-12-25T14:57:20.592Z,80.79
2017-12-25T14:59:49.406Z,81.71
2017-12-25T15:02:17.840Z,83.28
2017-12-25T15:04:46.280Z,84.02
2017-12-25T15:07:15.226Z,84.71
2017-12-25T15:09:43.563Z,84.22
2017-12-25T15:12:12.428Z,84.86
2017-12-25T15:14:41.728Z,84.83
2017-12-25T15:17:10.416Z,84.58
2017-12-25T15:19:38.902Z,84.49
2017-12-25T15:22:08.151Z,85.23
2017-12-25T15:24:36.471Z,85.32
2017-12-25T15:27:04.820Z,86.01
2017-12-25T15:29:33.584Z,86.17
2017-12-25T15:32:02.915Z,86.41
2017-12-25T15:34:31.293Z,87.64
2017-12-25T15:37:00.053Z,88.14
2017-12-25T15:39:28.387Z,87.81
2017-12-25T15:41:58.508Z,87.68
2017-12-25T15:44:26.960Z,87.65
2017-12-25T15:46:55.907Z,87.64
2017-12-25T15:49:24.996Z,87.83
2017-12-25T15:51:54.033Z,88.32
2017-12-25T15:54:22.828Z,88.30
2017-12-25T15:56:52.392Z,88.32
2017-12-25T15:59:24.647Z,88.46
2017-12-25T16:01:53.771Z,89.12
2017-12-25T16:04:22.797Z,89.31
2017-12-25T16:06:51.138Z,89.39
2017-12-25T16:09:20.789Z,89.72
2017-12-25T16:11:49.249Z,90.21
2017-12-25T16:14:17.592Z,90.36
2017-12-25T16:16:46.445Z,90.06
2017-12-25T16:19:14.903Z,89.99
2017-12-25T16:21:44.017Z,89.77
2017-12-25T16:24:12.412Z,89.84
2017-12-25T16:26:41.178Z,89.87
2017-12-25T16:29:09.712Z,89.92
2017-12-25T16:31:38.850Z,89.69
2017-12-25T16:34:07.911Z,89.54
2017-12-25T16:36:36.823Z,89.59
2017-12-25T16:39:05.289Z,89.51
2017-12-25T16:41:33.671Z,89.66
2017-12-25T16:44:02.576Z,89.55
2017-12-25T16:46:30.927Z,90.79
2017-12-25T16:48:59.249Z,91.22
2017-12-25T16:51:28.272Z,91.04
2017-12-25T16:53:57.532Z,92.02
2017-12-25T16:56:26.473Z,92.35
2017-12-25T16:58:54.785Z,91.82
2017-12-25T17:01:23.173Z,91.47
2017-12-25T17:03:52.072Z,90.99
2017-12-25T17:06:22.005Z,91.09
2017-12-25T17:08:50.495Z,90.93
2017-12-25T17:11:19.529Z,90.71
2017-12-25T17:13:48.630Z,90.74
2017-12-25T17:16:17.836Z,91.01
2017-12-25T17:18:46.805Z,91.50
2017-12-25T17:21:15.736Z,91.55
2017-12-25T17:23:44.128Z,91.62
2017-12-25T17:26:12.765Z,91.60
2017-12-25T17:28:41.394Z,91.22
2017-12-25T17:31:09.841Z,91.27
2017-12-25T17:33:38.782Z,91.19
2017-12-25T17:36:08.032Z,91.39
2017-12-25T17:38:37.177Z,91.30
2017-12-25T17:41:06.052Z,92.12
2017-12-25T17:43:34.380Z,93.50
2017-12-25T17:46:02.820Z,93.42
2017-12-25T17:48:31.691Z,93.01
2017-12-25T17:51:00.054Z,92.91
2017-12-25T17:53:29.276Z,93.18
2017-12-25T17:55:58.224Z,93.16
2017-12-25T17:58:27.132Z,93.19
2017-12-25T18:00:55.712Z,92.84
2017-12-25T18:03:24.631Z,92.80
2017-12-25T18:05:52.947Z,92.47
2017-12-25T18:08:21.976Z,92.13
2017-12-25T18:10:51.284Z,92.39
2017-12-25T18:13:20.352Z,93.26
2017-12-25T18:15:48.857Z,93.55
2017-12-25T18:18:18.299Z,93.58
2017-12-25T18:20:47.699Z,94.31
2017-12-25T18:23:16.804Z,93.90
2017-12-25T18:25:45.143Z,93.33
2017-12-25T18:28:14.136Z,93.07
2017-12-25T18:30:42.530Z,93.07
2017-12-25T18:33:11.272Z,93.55
2017-12-25T18:35:39.800Z,93.48
2017-12-25T18:38:08.761Z,93.50
2017-12-25T18:40:37.812Z,92.98
2017-12-25T18:43:06.346Z,92.70
2017-12-25T18:45:35.486Z,92.62
2017-12-25T18:48:10.211Z,92.93
2017-12-25T18:50:38.601Z,92.99
2017-12-25T18:53:07.685Z,93.11
2017-12-25T18:55:36.033Z,93.13
2017-12-25T18:58:04.392Z,92.84
2017-12-25T19:00:35.320Z,92.67
2017-12-25T19:03:04.593Z,92.65
2017-12-25T19:05:32.916Z,92.55
2017-12-25T19:08:01.985Z,92.38
2017-12-25T19:10:31.055Z,92.47
2017-12-25T19:12:59.972Z,92.56
2017-12-25T19:15:28.516Z,92.24
2017-12-25T19:18:02.825Z,92.22
2017-12-25T19:20:31.260Z,92.97
2017-12-25T19:23:00.708Z,93.49
2017-12-25T19:25:29.144Z,93.71
2017-12-25T19:27:57.519Z,93.68
2017-12-25T19:30:25.898Z,93.67
2017-12-25T19:32:54.908Z,93.27
2017-12-25T19:35:23.334Z,93.00
2017-12-25T19:37:51.840Z,92.73
2017-12-25T19:40:20.244Z,92.81
2017-12-25T19:42:48.621Z,92.91
2017-12-25T19:45:16.954Z,92.96
2017-12-25T19:47:45.408Z,92.79
2017-12-25T19:50:13.729Z,93.13
2017-12-25T19:52:42.059Z,93.22
2017-12-25T19:55:11.335Z,93.27
2017-12-25T19:57:40.021Z,93.48
2017-12-25T20:00:08.387Z,93.15
2017-12-25T20:02:36.736Z,93.14
2017-12-25T20:05:05.429Z,93.12
2017-12-25T20:07:33.748Z,93.10
2017-12-25T20:10:02.977Z,93.06
2017-12-25T20:12:31.304Z,92.98
2017-12-25T20:14:59.628Z,92.93
2017-12-25T20:17:28.082Z,92.98
2017-12-25T20:19:56.472Z,93.10
2017-12-25T20:22:24.788Z,93.45
2017-12-25T20:24:53.168Z,94.62
2017-12-25T20:27:21.551Z,95.12
2017-12-25T20:29:49.920Z,95.13
2017-12-25T20:32:18.352Z,95.15
2017-12-25T20:34:46.735Z,94.89
2017-12-25T20:37:15.111Z,94.84
2017-12-25T20:39:43.493Z,94.96
2017-12-25T20:42:11.862Z,95.06
2017-12-25T20:44:40.252Z,95.08
2017-12-25T20:47:08.911Z,95.44
2017-12-25T20:49:37.249Z,95.66
2017-12-25T20:52:05.664Z,95.71
2017-12-25T20:54:34.107Z,95.76
2017-12-25T20:57:02.484Z,95.42
2017-12-25T20:59:41.762Z,95.13
2017-12-25T21:02:10.109Z,94.96
2017-12-25T21:04:38.500Z,95.06
2017-12-25T21:07:07.908Z,95.48
2017-12-25T21:09:36.307Z,95.37
2017-12-25T21:12:04.788Z,95.28
2017-12-25T21:14:33.189Z,95.27
2017-12-25T21:17:02.339Z,95.10
2017-12-25T21:19:30.683Z,94.91
2017-12-25T21:21:59.207Z,94.74
2017-12-25T21:24:27.532Z,94.73
2017-12-25T21:26:56.686Z,94.78
2017-12-25T21:29:25.200Z,94.84
2017-12-25T21:31:53.575Z,94.87
2017-12-25T21:34:21.953Z,95.10
2017-12-25T21:36:50.475Z,94.84
2017-12-25T21:39:18.840Z,94.67
2017-12-25T21:41:47.256Z,94.66
2017-12-25T21:44:15.709Z,94.72
2017-12-25T21:46:44.169Z,95.59
2017-12-25T21:49:12.558Z,95.95
2017-12-25T21:51:41.090Z,95.67
2017-12-25T21:54:09.464Z,95.36
2017-12-25T21:56:37.839Z,95.00
2017-12-25T21:59:06.275Z,94.86
2017-12-25T22:01:35.417Z,94.75
2017-12-25T22:04:03.811Z,94.50
2017-12-25T22:06:32.184Z,94.43
2017-12-25T22:09:00.796Z,96.29
2017-12-25T22:11:29.455Z,96.83
2017-12-25T22:13:58.332Z,96.66
2017-12-25T22:16:27.415Z,96.18
2017-12-25T22:18:56.291Z,95.95
2017-12-25T22:21:25.607Z,95.79
2017-12-25T22:23:54.542Z,95.78
2017-12-25T22:26:22.926Z,95.42
2017-12-25T22:28:51.769Z,95.44
2017-12-25T22:31:20.627Z,96.09
2017-12-25T22:33:50.111Z,96.04
2017-12-25T22:36:19.251Z,95.82
2017-12-25T22:38:48.147Z,95.50
2017-12-25T22:41:16.575Z,95.61
2017-12-25T22:43:45.727Z,95.83
2017-12-25T22:46:14.272Z,96.30
2017-12-25T22:48:43.862Z,96.08
2017-12-25T22:51:12.985Z,96.25
2017-12-25T22:53:41.713Z,95.93
2017-12-25T22:56:11.112Z,95.71
2017-12-25T22:58:39.556Z,95.35
2017-12-25T23:01:08.620Z,95.24
2017-12-25T23:03:37.662Z,95.06
2017-12-25T23:06:10.059Z,95.11
2017-12-25T23:08:39.046Z,94.91
2017-12-25T23:11:08.282Z,94.96
2017-12-25T23:13:38.390Z,95.18
2017-12-25T23:16:07.318Z,94.92
2017-12-25T23:18:36.499Z,94.50
2017-12-25T23:21:05.395Z,94.61
2017-12-25T23:23:33.866Z,94.47
2017-12-25T23:26:02.772Z,94.73
2017-12-25T23:28:32.054Z,94.81
2017-12-25T23:31:00.448Z,95.31
2017-12-25T23:33:30.065Z,95.40
2017-12-25T23:35:58.721Z,95.11
2017-12-25T23:38:27.405Z,95.25
2017-12-25T23:40:55.787Z,95.22
2017-12-25T23:43:24.146Z,95.42
2017-12-25T23:45:53.059Z,95.41
2017-12-25T23:48:21.435Z,95.06
2017-12-25T23:50:50.616Z,95.02
2017-12-25T23:53:19.041Z,94.84
2017-12-25T23:55:48.139Z,94.70
2017-12-25T23:58:17.051Z,94.95
